Time;durP1;ratioP1;P1;durP2;ratioP2;P2;SDS_P1;SDS_P2;PMS_P1;PMS_P2;Temp;Humidity;BMP_temperature;BMP_pressure;BME280_temperature;BME280_humidity;BME280_pressure;Samples;Min_cycle;Max_cycle;Signal;HPM_P1;HPM_P2
2022/09/27 00:00:14;;;;;;;2.00;0.60;;;;;;;8.50;100.00;93833.94;4961192;28;20200;-85
2022/09/27 00:02:39;;;;;;;0.50;0.50;;;;;;;8.45;100.00;93839.63;4950386;28;20188;-85
2022/09/27 00:05:05;;;;;;;1.13;0.60;;;;;;;8.44;100.00;93829.47;4965241;28;20197;-85
2022/09/27 00:07:30;;;;;;;0.63;0.60;;;;;;;8.33;100.00;93832.44;4951469;28;20216;-86
2022/09/27 00:09:55;;;;;;;0.50;0.50;;;;;;;8.38;100.00;93837.91;4964196;28;20223;-85
2022/09/27 00:12:21;;;;;;;0.60;0.60;;;;;;;8.37;100.00;93839.69;4941780;28;20201;-85
2022/09/27 00:14:46;;;;;;;1.47;0.50;;;;;;;8.45;100.00;93836.25;4955026;28;20551;-85
2022/09/27 00:17:11;;;;;;;0.80;0.70;;;;;;;8.38;100.00;93836.13;4939752;28;20690;-85
2022/09/27 00:19:37;;;;;;;0.63;0.53;;;;;;;8.38;100.00;93830.16;4968984;28;20296;-85
2022/09/27 00:22:02;;;;;;;0.70;0.50;;;;;;;8.36;100.00;93830.34;4990220;28;20334;-85
2022/09/27 00:24:28;;;;;;;0.50;0.50;;;;;;;8.38;100.00;93830.16;4973980;28;20192;-85
2022/09/27 00:26:53;;;;;;;0.63;0.40;;;;;;;8.43;100.00;93833.03;4959444;28;20240;-85
2022/09/27 00:29:19;;;;;;;0.60;0.50;;;;;;;8.37;100.00;93831.13;4954645;28;20220;-86
2022/09/27 00:31:44;;;;;;;0.63;0.47;;;;;;;8.41;100.00;93832.41;4970614;28;20194;-85
2022/09/27 00:34:22;;;;;;;0.40;0.40;;;;;;;8.43;100.00;93833.03;4984652;28;20682;-86
2022/09/27 00:36:48;;;;;;;1.17;0.50;;;;;;;8.33;100.00;93824.69;4947368;28;20656;-85
2022/09/27 00:39:14;;;;;;;2.37;0.50;;;;;;;8.53;100.00;93820.63;4958659;28;20193;-85
2022/09/27 00:41:40;;;;;;;0.87;0.57;;;;;;;8.54;100.00;93822.25;4964781;28;20192;-86
2022/09/27 00:44:23;;;;;;;0.40;0.40;;;;;;;8.63;100.00;93821.19;4952267;28;20623;-85
2022/09/27 00:46:54;;;;;;;0.50;0.50;;;;;;;8.64;100.00;93822.78;4971043;28;20217;-85
2022/09/27 00:49:28;;;;;;;0.90;0.40;;;;;;;8.53;100.00;93818.06;4988105;28;20271;-85
2022/09/27 00:51:59;;;;;;;3.53;0.70;;;;;;;8.64;100.00;93819.41;4943252;28;20195;-85
2022/09/27 00:54:25;;;;;;;0.77;0.50;;;;;;;8.66;100.00;93820.84;4965625;28;20192;-85
2022/09/27 00:56:51;;;;;;;1.63;0.50;;;;;;;8.71;100.00;93815.94;4971950;28;20664;-85
2022/09/27 00:59:21;;;;;;;1.80;0.70;;;;;;;8.67;100.00;93808.72;4970231;28;20187;-85
2022/09/27 01:01:48;;;;;;;0.77;0.60;;;;;;;8.76;100.00;93807.63;4953464;28;20180;-85
2022/09/27 01:04:17;;;;;;;3.47;0.80;;;;;;;8.74;100.00;93812.97;4985374;28;20193;-85
2022/09/27 01:06:42;;;;;;;0.80;0.70;;;;;;;8.72;100.00;93807.19;4942161;28;20604;-85
2022/09/27 01:09:09;;;;;;;4.37;0.90;;;;;;;8.83;100.00;93818.06;4974522;28;20216;-85
2022/09/27 01:11:37;;;;;;;2.03;0.70;;;;;;;8.80;100.00;93820.03;4957198;28;20247;-85
2022/09/27 01:14:17;;;;;;;2.20;0.73;;;;;;;8.74;100.00;93817.34;4959156;28;20606;-85
2022/09/27 01:16:58;;;;;;;1.50;0.60;;;;;;;8.79;100.00;93821.00;4965895;28;20221;-85
2022/09/27 01:19:59;;;;;;;1.37;0.70;;;;;;;8.71;100.00;93810.75;4971959;28;20185;-85
2022/09/27 01:22:40;;;;;;;1.90;0.70;;;;;;;8.70;100.00;93813.53;5004577;28;20203;-86
2022/09/27 01:25:26;;;;;;;2.20;0.90;;;;;;;8.67;100.00;93809.50;4991351;28;20168;-87
2022/09/27 01:28:07;;;;;;;1.17;1.07;;;;;;;8.67;100.00;93809.50;4983542;28;20216;-86
2022/09/27 01:30:40;;;;;;;1.63;0.73;;;;;;;8.73;100.00;93816.53;4969905;28;20189;-86
2022/09/27 01:33:13;;;;;;;3.07;0.90;;;;;;;8.64;100.00;93820.19;4972230;28;20304;-85
2022/09/27 01:35:57;;;;;;;1.37;0.80;;;;;;;8.63;100.00;93820.38;4976175;28;20192;-85
2022/09/27 01:38:39;;;;;;;1.20;0.60;;;;;;;8.62;100.00;93817.00;4975296;28;20195;-86
2022/09/27 01:41:27;;;;;;;0.80;0.70;;;;;;;8.60;100.00;93818.97;4953264;28;20188;-86
2022/09/27 01:43:58;;;;;;;0.97;0.70;;;;;;;8.47;100.00;93818.75;4972997;28;20212;-85
2022/09/27 01:46:30;;;;;;;2.60;0.47;;;;;;;8.61;100.00;93819.75;4972174;28;20622;-86
2022/09/27 01:48:56;;;;;;;0.60;0.60;;;;;;;8.62;100.00;93827.34;4955741;28;20220;-86
2022/09/27 01:51:23;;;;;;;0.63;0.60;;;;;;;8.49;100.00;93822.78;4961350;28;20227;-86
2022/09/27 01:53:53;;;;;;;1.03;0.60;;;;;;;8.57;100.00;93837.44;4957490;28;20271;-85
2022/09/27 01:56:29;;;;;;;0.77;0.40;;;;;;;8.57;100.00;93840.03;4952287;28;20212;-85
2022/09/27 01:59:01;;;;;;;1.27;0.50;;;;;;;8.51;100.00;93851.06;4954609;28;20605;-85
2022/09/27 02:01:28;;;;;;;1.03;0.60;;;;;;;8.52;100.00;93850.09;4969560;28;20185;-85
2022/09/27 02:03:56;;;;;;;0.50;0.50;;;;;;;8.48;100.00;93859.16;4970835;28;20193;-86
2022/09/27 02:06:29;;;;;;;1.13;0.73;;;;;;;8.19;100.00;93852.91;4959469;28;20208;-86
2022/09/27 02:08:58;;;;;;;2.00;0.70;;;;;;;8.09;100.00;93847.19;4957431;28;20213;-86
2022/09/27 02:11:24;;;;;;;1.10;0.90;;;;;;;8.11;100.00;93852.97;4959225;28;20180;-85
2022/09/27 02:13:57;;;;;;;3.67;0.90;;;;;;;8.16;100.00;93842.13;4974406;28;20185;-86
2022/09/27 02:16:31;;;;;;;1.93;0.90;;;;;;;8.27;99.80;93848.66;4951828;28;20720;-86
2022/09/27 02:19:12;;;;;;;4.47;1.20;;;;;;;8.29;99.38;93857.03;4939949;28;20199;-86
2022/09/27 02:21:44;;;;;;;2.13;0.90;;;;;;;8.07;98.21;93856.09;4956844;28;20192;-85
2022/09/27 02:24:13;;;;;;;2.87;1.13;;;;;;;8.21;98.42;93860.50;4965004;28;20192;-86
2022/09/27 02:26:43;;;;;;;2.87;0.90;;;;;;;8.01;98.40;93852.41;4954791;28;20208;-86
2022/09/27 02:29:12;;;;;;;2.53;1.17;;;;;;;7.83;98.58;93849.31;4955774;28;20686;-85
2022/09/27 02:31:37;;;;;;;2.10;1.17;;;;;;;7.99;97.96;93843.22;4949827;28;20201;-85
2022/09/27 02:34:17;;;;;;;3.77;1.20;;;;;;;7.92;98.01;93843.13;4955063;28;20176;-85
2022/09/27 02:36:42;;;;;;;4.20;1.30;;;;;;;7.87;98.23;93848.00;4957169;28;20215;-85
2022/09/27 02:39:08;;;;;;;1.57;1.37;;;;;;;8.01;97.96;93851.63;4984469;28;20181;-86
2022/09/27 02:41:33;;;;;;;3.30;1.67;;;;;;;7.93;98.82;93852.47;4969486;28;20192;-85
2022/09/27 02:44:02;;;;;;;6.80;1.70;;;;;;;7.91;99.34;93852.66;4968284;28;20189;-86
2022/09/27 02:46:37;;;;;;;3.17;1.30;;;;;;;7.97;99.89;93853.75;4955107;28;20211;-86
2022/09/27 02:49:39;;;;;;;2.90;1.63;;;;;;;7.90;100.00;93852.81;4965809;28;20232;-86
2022/09/27 02:52:27;;;;;;;4.43;1.80;;;;;;;7.93;100.00;93855.06;4952445;28;20204;-86
2022/09/27 02:55:13;;;;;;;3.97;1.90;;;;;;;8.03;100.00;93862.56;4970670;28;20576;-85
2022/09/27 02:57:59;;;;;;;5.50;1.90;;;;;;;8.07;100.00;93863.84;4937029;28;20219;-86
2022/09/27 03:00:33;;;;;;;3.50;1.83;;;;;;;7.90;100.00;93866.56;4969584;28;20208;-86
2022/09/27 03:03:08;;;;;;;3.47;2.00;;;;;;;8.03;100.00;93881.47;4947238;28;20193;-85
2022/09/27 03:05:48;;;;;;;10.87;3.00;;;;;;;7.96;100.00;93878.00;4933203;28;20187;-85
2022/09/27 03:08:13;;;;;;;7.00;2.43;;;;;;;8.05;100.00;93874.38;4956310;28;20229;-86
2022/09/27 03:10:39;;;;;;;4.67;2.60;;;;;;;8.05;100.00;93883.91;4960316;28;20207;-85
2022/09/27 03:13:04;;;;;;;5.17;3.03;;;;;;;8.06;100.00;93877.75;4968342;28;20188;-86
2022/09/27 03:15:30;;;;;;;7.23;2.97;;;;;;;8.13;100.00;93876.91;4960985;28;20197;-85
2022/09/27 03:17:56;;;;;;;7.97;3.17;;;;;;;7.99;100.00;93879.41;4967466;28;20193;-85
2022/09/27 03:20:22;;;;;;;4.87;2.83;;;;;;;7.99;100.00;93887.19;4972360;28;20196;-85
2022/09/27 03:22:47;;;;;;;5.30;2.83;;;;;;;7.98;100.00;93896.72;4969709;28;20185;-85
2022/09/27 03:25:12;;;;;;;5.90;3.03;;;;;;;8.01;100.00;93891.19;4962809;28;20185;-84
2022/09/27 03:27:38;;;;;;;9.13;3.20;;;;;;;7.91;100.00;93891.41;4965240;28;20568;-84
2022/09/27 03:30:05;;;;;;;6.83;2.90;;;;;;;8.01;100.00;93896.34;4939580;28;20208;-86
2022/09/27 03:32:30;;;;;;;8.23;2.97;;;;;;;7.83;100.00;93894.06;4939316;28;20193;-86
2022/09/27 03:34:55;;;;;;;9.20;3.07;;;;;;;7.93;100.00;93880.91;4964071;28;20276;-86
2022/09/27 03:37:21;;;;;;;7.50;2.53;;;;;;;7.98;100.00;93888.16;4967904;28;20695;-86
2022/09/27 03:39:46;;;;;;;5.30;2.53;;;;;;;7.86;100.00;93887.72;4964937;28;20185;-86
2022/09/27 03:42:12;;;;;;;8.13;2.63;;;;;;;7.89;100.00;93897.75;4964688;28;20188;-86
2022/09/27 03:44:37;;;;;;;9.20;3.00;;;;;;;7.90;100.00;93894.97;4962097;28;20267;-85
2022/09/27 03:47:02;;;;;;;9.43;3.07;;;;;;;7.94;100.00;93892.84;4964036;28;20209;-86
2022/09/27 03:49:28;;;;;;;7.10;2.60;;;;;;;7.79;100.00;93892.00;4969692;28;20223;-87
2022/09/27 03:51:53;;;;;;;6.93;2.47;;;;;;;7.82;100.00;93892.44;4967858;28;20271;-86
2022/09/27 03:54:18;;;;;;;7.20;2.80;;;;;;;7.95;100.00;93902.19;4962210;28;21247;-85
2022/09/27 03:56:44;;;;;;;7.63;2.37;;;;;;;7.83;100.00;93885.50;4964782;28;20220;-86
2022/09/27 03:59:13;;;;;;;6.37;2.37;;;;;;;7.76;100.00;93900.06;4971922;28;20192;-85
2022/09/27 04:01:38;;;;;;;10.57;2.97;;;;;;;7.87;100.00;93894.53;4957115;28;20185;-85
2022/09/27 04:04:04;;;;;;;8.80;2.77;;;;;;;7.85;100.00;93906.78;4954647;28;20709;-85
2022/09/27 04:06:29;;;;;;;5.90;2.53;;;;;;;7.85;100.00;93897.25;4956508;28;20239;-85
2022/09/27 04:08:55;;;;;;;5.00;2.73;;;;;;;7.81;100.00;93901.19;4940897;28;20200;-86
2022/09/27 04:11:22;;;;;;;6.43;2.40;;;;;;;7.85;100.00;93909.38;4965266;28;20248;-85
2022/09/27 04:13:48;;;;;;;6.53;2.57;;;;;;;7.80;100.00;93903.94;4957654;28;20204;-85
2022/09/27 04:16:13;;;;;;;6.30;2.37;;;;;;;7.75;100.00;93908.78;4972447;28;20216;-85
2022/09/27 04:18:39;;;;;;;8.43;2.50;;;;;;;7.79;100.00;93908.31;4955694;28;20531;-85
2022/09/27 04:21:04;;;;;;;5.70;2.40;;;;;;;7.73;100.00;93913.34;4970462;28;20195;-85
2022/09/27 04:23:29;;;;;;;4.90;2.37;;;;;;;7.79;100.00;93904.91;4954649;28;20215;-85
2022/09/27 04:25:55;;;;;;;5.60;2.10;;;;;;;7.82;100.00;93920.06;4958274;28;20205;-86
2022/09/27 04:28:20;;;;;;;6.30;2.50;;;;;;;7.75;100.00;93907.03;4950158;28;20231;-85
2022/09/27 04:30:46;;;;;;;3.80;2.13;;;;;;;7.72;100.00;93904.78;4966269;28;20193;-85
2022/09/27 04:33:12;;;;;;;6.20;2.60;;;;;;;7.83;100.00;93914.72;4953344;28;20192;-85
2022/09/27 04:38:22;;;;;;;4.60;1.50;;;;;;;7.70;100.00;93916.28;4970642;28;20725;-84
2022/09/27 04:40:49;;;;;;;2.80;1.73;;;;;;;7.76;100.00;93913.00;4987309;28;20176;-85
2022/09/27 04:43:14;;;;;;;2.97;1.70;;;;;;;7.63;100.00;93908.38;4971357;28;20184;-85
2022/09/27 04:45:42;;;;;;;2.47;1.40;;;;;;;7.71;100.00;93910.94;4949531;28;20193;-85
2022/09/27 04:48:07;;;;;;;5.20;1.97;;;;;;;7.69;100.00;93909.50;4953322;28;20219;-85
2022/09/27 04:50:33;;;;;;;6.27;1.67;;;;;;;7.59;100.00;93907.09;4968492;28;20201;-84
2022/09/27 04:52:58;;;;;;;3.23;1.50;;;;;;;7.55;100.00;93909.22;4969383;28;20619;-85
2022/09/27 04:55:23;;;;;;;3.27;2.07;;;;;;;7.63;100.00;93913.56;4962291;28;20193;-86
2022/09/27 04:57:49;;;;;;;4.83;1.90;;;;;;;7.60;100.00;93924.22;4946162;28;20212;-80
2022/09/27 05:00:15;;;;;;;5.33;2.20;;;;;;;7.59;100.00;93918.22;4982796;28;20196;-85
2022/09/27 05:02:42;;;;;;;5.63;2.20;;;;;;;7.58;100.00;93926.97;4953922;28;20284;-85
2022/09/27 05:05:08;;;;;;;2.83;2.00;;;;;;;7.57;100.00;93940.06;4971326;28;20196;-85
2022/09/27 05:07:34;;;;;;;3.17;1.97;;;;;;;7.54;100.00;93948.16;4955795;28;20237;-86
2022/09/27 05:09:59;;;;;;;3.00;2.00;;;;;;;7.45;100.00;93952.53;4953828;28;20690;-86
2022/09/27 05:12:25;;;;;;;3.70;2.00;;;;;;;7.29;100.00;93950.81;4942316;28;20231;-85
2022/09/27 05:14:51;;;;;;;3.83;1.87;;;;;;;7.30;100.00;93970.50;4939034;28;20212;-86
2022/09/27 05:17:17;;;;;;;5.50;1.90;;;;;;;7.44;100.00;93973.38;4968257;28;20208;-86
2022/09/27 05:19:43;;;;;;;3.27;1.50;;;;;;;7.57;100.00;93973.63;4988044;28;20188;-86
2022/09/27 05:22:08;;;;;;;4.43;1.40;;;;;;;7.59;100.00;93982.81;4973626;28;20220;-85
2022/09/27 05:24:34;;;;;;;5.33;1.70;;;;;;;7.52;100.00;93984.47;4971027;28;20188;-87
2022/09/27 05:27:00;;;;;;;1.90;1.30;;;;;;;7.38;100.00;93975.63;4968899;28;20219;-86
2022/09/27 05:29:25;;;;;;;19.60;11.30;;;;;;;7.54;100.00;93990.28;4941496;28;20670;-85
2022/09/27 05:31:51;;;;;;;5.87;3.80;;;;;;;7.56;100.00;93990.09;4971719;28;20274;-86
2022/09/27 05:34:19;;;;;;;1.77;1.40;;;;;;;7.47;100.00;93985.94;4972310;28;20200;-86
2022/09/27 05:36:46;;;;;;;2.97;1.80;;;;;;;7.48;100.00;93997.88;4968274;28;20280;-87
2022/09/27 05:39:11;;;;;;;1.97;1.40;;;;;;;7.48;100.00;93987.56;4957108;28;20203;-83
2022/09/27 05:41:37;;;;;;;1.83;1.40;;;;;;;7.48;100.00;94001.28;4958065;28;20188;-87
2022/09/27 05:44:02;;;;;;;2.57;1.70;;;;;;;7.50;100.00;93999.31;4974432;28;20533;-86
2022/09/27 05:46:28;;;;;;;1.73;1.30;;;;;;;7.46;100.00;94000.63;4939222;28;20228;-84
2022/09/27 05:48:53;;;;;;;2.57;2.33;;;;;;;7.46;100.00;94005.81;4949122;28;20295;-86
2022/09/27 05:51:19;;;;;;;2.27;1.40;;;;;;;7.41;100.00;93999.50;4957214;28;20204;-86
2022/09/27 05:53:45;;;;;;;1.20;1.10;;;;;;;7.53;100.00;94003.38;4971070;28;20576;-86
2022/09/27 05:56:10;;;;;;;2.17;1.20;;;;;;;7.43;100.00;94006.16;4949528;28;20222;-87
2022/09/27 05:58:35;;;;;;;2.87;1.40;;;;;;;7.50;100.00;94012.22;4968369;28;20188;-85
2022/09/27 06:01:01;;;;;;;1.20;1.10;;;;;;;7.50;100.00;94009.66;4969105;28;20200;-86
2022/09/27 06:03:26;;;;;;;1.97;1.20;;;;;;;7.60;100.00;94018.03;4939339;28;20636;-86
2022/09/27 06:05:51;;;;;;;3.37;1.57;;;;;;;7.83;100.00;94025.84;4955953;28;20238;-86
2022/09/27 06:08:19;;;;;;;1.40;1.10;;;;;;;7.72;100.00;94026.22;4970383;28;20208;-84
2022/09/27 06:10:44;;;;;;;1.43;1.13;;;;;;;7.70;100.00;94038.50;4941722;28;20196;-85
2022/09/27 06:13:11;;;;;;;2.30;1.00;;;;;;;7.59;99.47;94029.31;4965425;28;20775;-85
2022/09/27 06:15:38;;;;;;;1.20;0.80;;;;;;;7.48;100.00;94034.84;4955639;28;20190;-85
2022/09/27 06:18:05;;;;;;;0.93;0.83;;;;;;;7.35;100.00;94039.72;4951474;28;20204;-84
2022/09/27 06:20:31;;;;;;;2.30;1.30;;;;;;;7.46;99.91;94044.53;4961606;28;20229;-85
2022/09/27 06:23:23;;;;;;;0.93;0.90;;;;;;;7.45;99.69;94053.25;4978388;28;20205;-86
2022/09/27 06:25:49;;;;;;;0.70;0.70;;;;;;;7.57;99.24;94053.72;4970133;28;20238;-85
2022/09/27 06:28:16;;;;;;;4.13;1.10;;;;;;;7.45;99.27;94055.03;4967568;28;20224;-86
2022/09/27 06:30:43;;;;;;;1.37;0.80;;;;;;;7.49;99.48;94062.28;4987567;28;20315;-87
2022/09/27 06:33:11;;;;;;;4.07;1.00;;;;;;;7.56;98.50;94052.91;4964594;28;20898;-85
2022/09/27 06:35:36;;;;;;;1.60;0.80;;;;;;;7.41;99.64;94067.47;4946688;28;20188;-85
2022/09/27 06:38:03;;;;;;;1.43;1.30;;;;;;;7.36;99.65;94067.16;4977769;28;20196;-88
2022/09/27 06:40:29;;;;;;;1.30;1.20;;;;;;;7.48;99.49;94072.78;4959158;28;20188;-87
2022/09/27 06:43:03;;;;;;;4.20;1.90;;;;;;;7.44;99.30;94067.16;4966744;28;20204;-86
2022/09/27 06:45:30;;;;;;;4.27;3.10;;;;;;;7.42;99.82;94066.53;4979298;28;20180;-87
2022/09/27 06:47:56;;;;;;;8.23;5.40;;;;;;;7.52;99.47;94071.50;4962714;28;20679;-85
2022/09/27 06:50:21;;;;;;;4.00;3.10;;;;;;;7.62;97.71;94075.50;4962974;28;20204;-86
2022/09/27 06:52:48;;;;;;;2.13;0.80;;;;;;;7.51;97.86;94078.44;4972578;28;20215;-85
2022/09/27 06:55:13;;;;;;;1.07;0.60;;;;;;;7.53;98.16;94073.09;4970297;28;20197;-88
2022/09/27 07:00:22;;;;;;;13.93;8.27;;;;;;;7.33;98.86;94080.38;4959805;28;20743;-84
2022/09/27 07:02:49;;;;;;;3.03;1.83;;;;;;;7.49;98.96;94087.31;4954170;28;20216;-87
2022/09/27 07:05:14;;;;;;;2.83;1.10;;;;;;;7.38;99.21;94081.53;4968507;28;20674;-85
2022/09/27 07:07:39;;;;;;;3.03;1.80;;;;;;;7.43;99.88;94088.78;4969251;28;20215;-84
2022/09/27 07:10:05;;;;;;;1.57;1.47;;;;;;;7.60;99.29;94094.75;4951269;28;20209;-84
2022/09/27 07:12:31;;;;;;;2.00;1.60;;;;;;;7.94;98.30;94090.09;4949479;28;20286;-84
2022/09/27 07:14:56;;;;;;;2.10;1.40;;;;;;;8.32;96.81;94110.16;4963664;28;20193;-85
2022/09/27 07:17:22;;;;;;;1.90;1.70;;;;;;;8.29;95.42;94105.31;4957270;28;20790;-85
2022/09/27 07:19:47;;;;;;;1.87;1.50;;;;;;;8.27;95.07;94122.78;4958554;28;20177;-85
2022/09/27 07:22:13;;;;;;;1.53;1.40;;;;;;;8.02;95.23;94104.78;4971026;28;20192;-85
2022/09/27 07:24:38;;;;;;;1.37;1.27;;;;;;;8.05;94.80;94114.00;4957431;28;20194;-86
2022/09/27 07:27:03;;;;;;;1.47;1.33;;;;;;;8.54;93.72;94119.78;4967289;28;20572;-85
2022/09/27 07:29:29;;;;;;;1.60;1.27;;;;;;;8.76;92.45;94123.41;4941172;28;20212;-85
2022/09/27 07:31:54;;;;;;;3.07;1.10;;;;;;;8.72;90.38;94122.91;4980908;28;20196;-85
2022/09/27 07:34:19;;;;;;;1.20;1.10;;;;;;;8.75;91.42;94137.31;4972449;28;20212;-85
2022/09/27 07:36:45;;;;;;;1.70;1.37;;;;;;;8.76;90.20;94129.38;4969674;28;20675;-85
2022/09/27 07:39:10;;;;;;;1.37;1.10;;;;;;;8.84;90.07;94143.25;4970363;28;20191;-83
2022/09/27 07:41:38;;;;;;;2.50;1.10;;;;;;;8.50;90.46;94134.03;4972607;28;20200;-84
2022/09/27 07:44:04;;;;;;;1.73;0.80;;;;;;;8.60;90.77;94134.63;4961809;28;20197;-83
2022/09/27 07:46:29;;;;;;;1.23;0.80;;;;;;;8.61;91.81;94138.84;4969588;28;20204;-83
2022/09/27 07:48:55;;;;;;;1.83;1.00;;;;;;;8.83;92.36;94131.25;4952633;28;20212;-85
2022/09/27 07:51:20;;;;;;;1.50;0.80;;;;;;;8.97;92.32;94140.88;4954065;28;20228;-85
2022/09/27 07:53:45;;;;;;;2.03;0.70;;;;;;;9.02;90.17;94139.41;4956360;28;20216;-82
2022/09/27 07:56:11;;;;;;;1.20;0.80;;;;;;;9.13;90.74;94147.75;4964166;28;20275;-85
2022/09/27 07:58:36;;;;;;;3.63;1.10;;;;;;;9.22;89.40;94149.31;4953722;28;20199;-83
2022/09/27 08:01:01;;;;;;;2.93;0.93;;;;;;;9.35;90.91;94155.50;4970166;28;20196;-85
2022/09/27 08:03:27;;;;;;;1.10;0.90;;;;;;;9.44;88.18;94166.59;4951342;28;20188;-85
2022/09/27 08:05:52;;;;;;;4.10;1.20;;;;;;;9.55;88.70;94161.03;4952749;28;20239;-84
2022/09/27 08:08:17;;;;;;;2.00;1.30;;;;;;;9.48;87.95;94173.06;4968943;28;20295;-83
2022/09/27 08:10:43;;;;;;;1.67;1.10;;;;;;;9.35;87.57;94173.63;4982817;28;20283;-83
2022/09/27 08:13:09;;;;;;;6.43;1.60;;;;;;;9.35;87.17;94171.03;4956276;28;20253;-83
2022/09/27 08:15:37;;;;;;;3.53;2.03;;;;;;;9.55;87.04;94170.59;4954085;28;20188;-80
2022/09/27 08:18:05;;;;;;;2.73;1.47;;;;;;;9.45;87.33;94188.13;4934077;28;20201;-80
2022/09/27 08:20:30;;;;;;;2.53;1.50;;;;;;;9.25;87.95;94170.47;4951515;28;20618;-84
2022/09/27 08:22:55;;;;;;;2.57;1.80;;;;;;;9.13;88.47;94186.59;4955527;28;20673;-86
2022/09/27 08:25:23;;;;;;;3.33;1.77;;;;;;;8.94;89.26;94182.66;4952356;28;20193;-84
2022/09/27 08:27:59;;;;;;;4.10;1.90;;;;;;;9.11;89.17;94183.38;4968890;28;20261;-84
2022/09/27 08:30:25;;;;;;;3.40;1.83;;;;;;;9.34;89.08;94191.94;4956316;28;20199;-84
2022/09/27 08:32:58;;;;;;;8.33;2.10;;;;;;;9.48;87.58;94187.81;4938053;28;20662;-84
2022/09/27 08:35:24;;;;;;;2.87;1.80;;;;;;;8.95;88.63;94187.66;4938382;28;20571;-86
2022/09/27 08:37:58;;;;;;;4.87;1.80;;;;;;;8.94;89.24;94198.19;4953851;28;20220;-84
2022/09/27 08:40:41;;;;;;;6.57;1.80;;;;;;;8.63;90.44;94196.38;4967098;28;20565;-84
2022/09/27 08:43:16;;;;;;;4.00;2.30;;;;;;;8.71;91.30;94198.13;4973286;28;20192;-84
2022/09/27 08:45:57;;;;;;;5.90;1.93;;;;;;;8.59;91.13;94202.09;4970379;28;20313;-86
2022/09/27 08:48:24;;;;;;;5.30;2.10;;;;;;;8.14;93.35;94206.88;4957558;28;20204;-86
2022/09/27 08:50:49;;;;;;;3.17;2.03;;;;;;;8.22;93.66;94206.06;4957668;28;20201;-84
2022/09/27 08:53:20;;;;;;;3.97;1.90;;;;;;;8.38;93.06;94208.59;4973153;28;20195;-84
2022/09/27 08:56:12;;;;;;;5.20;2.33;;;;;;;8.49;91.20;94197.13;4983490;28;20215;-84
2022/09/27 08:59:11;;;;;;;2.47;2.27;;;;;;;8.78;89.94;94201.66;4953942;28;20200;-85
2022/09/27 09:01:36;;;;;;;2.17;1.50;;;;;;;8.78;88.42;94193.91;4958488;28;20189;-85
2022/09/27 09:04:03;;;;;;;2.73;1.40;;;;;;;8.76;87.81;94194.09;4983371;28;20216;-85
2022/09/27 09:06:40;;;;;;;2.83;1.70;;;;;;;9.05;88.42;94190.03;4954667;28;20211;-87
2022/09/27 09:09:34;;;;;;;2.83;1.63;;;;;;;8.96;88.61;94194.44;4985478;28;20698;-86
2022/09/27 09:15:11;;;;;;;2.90;1.77;;;;;;;9.84;86.08;94201.75;4974411;28;20252;-87
2022/09/27 09:17:40;;;;;;;2.93;1.90;;;;;;;10.29;84.51;94194.06;4975727;28;20208;-85
2022/09/27 09:20:25;;;;;;;3.57;1.33;;;;;;;10.16;85.03;94197.25;4968476;28;20192;-84
2022/09/27 09:23:05;;;;;;;5.03;2.37;;;;;;;10.02;81.77;94198.03;4971173;28;20188;-87
2022/09/27 09:25:49;;;;;;;5.17;2.07;;;;;;;10.41;82.26;94203.81;4971779;28;20206;-87
2022/09/27 09:28:47;;;;;;;3.63;2.20;;;;;;;10.27;79.95;94199.44;4973621;28;20217;-86
2022/09/27 09:31:19;;;;;;;4.57;1.70;;;;;;;10.53;79.66;94195.59;4958647;28;20540;-84
2022/09/27 09:33:48;;;;;;;8.77;2.27;;;;;;;10.77;80.09;94188.28;4957744;28;20281;-84
2022/09/27 09:36:22;;;;;;;9.30;2.40;;;;;;;10.88;78.96;94181.84;4965511;28;20215;-85
2022/09/27 09:38:53;;;;;;;3.57;1.80;;;;;;;10.70;79.51;94190.03;4956696;28;20181;-86
2022/09/27 09:41:44;;;;;;;3.13;1.83;;;;;;;10.70;79.22;94184.81;4958332;29;20273;-84
2022/09/27 09:44:21;;;;;;;2.73;1.80;;;;;;;10.28;78.35;94179.47;4958102;28;20663;-85
2022/09/27 09:46:58;;;;;;;4.47;1.87;;;;;;;10.15;81.23;94180.06;4961633;28;20592;-84
2022/09/27 09:49:34;;;;;;;4.53;1.87;;;;;;;9.97;80.36;94177.81;4953192;28;20200;-85
2022/09/27 09:52:11;;;;;;;2.63;1.80;;;;;;;10.28;82.05;94175.09;4956690;28;20192;-85
2022/09/27 09:54:45;;;;;;;3.00;1.77;;;;;;;10.63;78.48;94181.34;4961839;28;20180;-85
2022/09/27 09:57:15;;;;;;;1.90;1.50;;;;;;;10.89;76.75;94174.84;4959851;28;20239;-85
2022/09/27 10:00:13;;;;;;;3.00;1.50;;;;;;;10.55;75.54;94167.66;4960922;28;20177;-85
2022/09/27 10:02:41;;;;;;;3.67;1.53;;;;;;;10.64;75.81;94169.97;4960441;28;20235;-86
2022/09/27 10:05:15;;;;;;;2.80;1.63;;;;;;;10.49;77.18;94171.75;4947265;28;20188;-84
2022/09/27 10:07:41;;;;;;;3.43;1.90;;;;;;;10.52;79.62;94168.84;4959400;28;20255;-84
2022/09/27 10:10:07;;;;;;;4.37;2.40;;;;;;;10.01;81.33;94171.28;4946052;28;20208;-84
2022/09/27 10:12:34;;;;;;;4.47;1.77;;;;;;;10.30;80.65;94167.13;4959383;28;20598;-84
2022/09/27 10:15:02;;;;;;;4.67;1.90;;;;;;;10.62;79.12;94168.56;4970684;28;20207;-84
2022/09/27 10:17:44;;;;;;;4.80;1.90;;;;;;;10.96;78.93;94171.34;4949384;28;20217;-84
2022/09/27 10:20:21;;;;;;;2.47;1.80;;;;;;;10.89;78.86;94164.47;4960023;28;20268;-85
2022/09/27 10:22:54;;;;;;;2.87;1.57;;;;;;;10.97;77.90;94167.75;4957828;28;20662;-85
2022/09/27 10:25:20;;;;;;;4.27;1.50;;;;;;;10.00;78.44;94164.50;4939735;28;20180;-84
2022/09/27 10:27:48;;;;;;;3.47;1.50;;;;;;;10.14;78.56;94161.09;4953868;28;20613;-83
2022/09/27 10:30:32;;;;;;;3.60;1.67;;;;;;;10.43;78.88;94168.13;4965212;28;20219;-85
2022/09/27 10:32:59;;;;;;;4.97;2.23;;;;;;;9.97;79.09;94158.84;4941741;28;20235;-84
2022/09/27 10:35:27;;;;;;;3.47;1.93;;;;;;;10.16;78.56;94158.34;4936583;28;20691;-84
2022/09/27 10:37:53;;;;;;;3.27;1.63;;;;;;;9.63;79.92;94162.75;4966989;28;20588;-84
2022/09/27 10:40:30;;;;;;;2.63;1.60;;;;;;;9.75;81.10;94160.53;4966782;28;20189;-85
2022/09/27 10:42:55;;;;;;;2.23;1.17;;;;;;;9.92;80.46;94156.81;4955529;28;20542;-84
2022/09/27 10:45:30;;;;;;;1.63;1.20;;;;;;;9.86;80.67;94153.13;4956973;28;20187;-86
2022/09/27 10:47:56;;;;;;;1.90;1.20;;;;;;;10.02;80.75;94154.75;4973043;28;20215;-85
2022/09/27 10:50:25;;;;;;;5.33;1.40;;;;;;;10.07;80.05;94156.78;4964515;28;20197;-86
2022/09/27 10:53:14;;;;;;;1.90;1.20;;;;;;;10.37;79.67;94161.03;4966618;28;20185;-84
2022/09/27 10:55:41;;;;;;;1.93;1.40;;;;;;;10.65;79.89;94148.22;4939455;28;20271;-84
2022/09/27 10:58:16;;;;;;;2.30;1.60;;;;;;;10.77;80.31;94151.13;4954599;28;20185;-86
2022/09/27 11:00:42;;;;;;;2.77;1.40;;;;;;;10.42;79.24;94142.31;4943356;28;20196;-85
2022/09/27 11:03:15;;;;;;;3.07;1.37;;;;;;;10.43;78.51;94144.75;4975030;28;20204;-86
2022/09/27 11:05:46;;;;;;;2.10;1.30;;;;;;;10.28;81.04;94149.16;4972356;28;20181;-85
2022/09/27 11:08:17;;;;;;;3.50;1.30;;;;;;;10.19;80.97;94145.81;4957366;28;20189;-86
2022/09/27 11:10:43;;;;;;;2.00;1.30;;;;;;;9.85;82.30;94143.72;4957219;28;20200;-85
2022/09/27 11:13:14;;;;;;;2.00;1.27;;;;;;;9.67;80.41;94142.44;4941261;28;20185;-86
2022/09/27 11:15:59;;;;;;;2.23;0.87;;;;;;;9.74;83.34;94148.56;4975792;28;20657;-84
2022/09/27 11:18:40;;;;;;;3.10;1.40;;;;;;;9.79;83.03;94161.78;4974819;28;20193;-86
2022/09/27 11:21:31;;;;;;;3.87;1.20;;;;;;;9.61;85.31;94178.44;4955617;28;20685;-85
2022/09/27 11:23:59;;;;;;;1.27;0.80;;;;;;;9.15;85.77;94184.63;4954173;28;20267;-85
2022/09/27 11:26:40;;;;;;;1.60;0.70;;;;;;;8.41;86.85;94192.78;4948647;28;20209;-85
2022/09/27 11:29:33;;;;;;;0.60;0.60;;;;;;;7.98;89.75;94196.56;4962281;28;20274;-85
2022/09/27 11:32:22;;;;;;;2.37;0.80;;;;;;;8.00;89.92;94191.22;4952482;28;20557;-85
2022/09/27 11:35:10;;;;;;;0.60;0.60;;;;;;;7.95;90.56;94196.88;4974036;28;20188;-87
2022/09/27 11:37:52;;;;;;;0.43;0.40;;;;;;;8.06;88.47;94193.97;4958217;28;20521;-87
2022/09/27 11:40:33;;;;;;;0.50;0.50;;;;;;;8.32;87.82;94185.19;4986695;28;20554;-86
2022/09/27 11:43:36;;;;;;;0.40;0.40;;;;;;;8.44;85.88;94176.91;4962597;28;20188;-85
2022/09/27 11:46:38;;;;;;;0.60;0.50;;;;;;;8.63;86.38;94175.69;4969209;28;20223;-85
2022/09/27 11:49:34;;;;;;;0.43;0.43;;;;;;;8.67;86.82;94182.16;4946612;28;20767;-84
2022/09/27 11:52:16;;;;;;;0.60;0.40;;;;;;;8.41;87.29;94166.09;4935268;28;20276;-85
2022/09/27 11:55:08;;;;;;;0.40;0.40;;;;;;;8.39;88.19;94168.03;4956323;28;20184;-85
2022/09/27 11:57:52;;;;;;;0.50;0.50;;;;;;;8.28;87.80;94168.38;4951866;28;20259;-84
2022/09/27 12:00:34;;;;;;;0.50;0.50;;;;;;;8.40;88.45;94160.13;4965428;28;20564;-86